BAW906 EGLL-EDDF
Flight info
| Callsign | BAW906 |
|---|---|
| Flight time | 1h 7m |
| Altitude | 35000 |
| Route | BPK Q295 MATCH DCT REDFA DCT TACHA DCT NOLRU DCT DIXAT DIXAT1A |
| Aircraft | A320/M-SDE3FGHIRWY/LB1 |
Departure
| Time | 2026-05-05 12:49 |
|---|---|
| Airport | London Heathrow Airport (EGLL) |
Arrival
| Time | 2026-05-05 13:56 |
|---|---|
| Airport | Frankfurt Main Airport (EDDF) |
| Time | Latitude | Longitude | Altitude | Speed | Heading |
|---|---|---|---|---|---|
| 2026-05-05 12:22 | 51.47048 | -0.48584 | 86 ft | 0 kts | 269° |
| 2026-05-05 12:23 | 51.47049 | -0.48584 | 86 ft | 0 kts | 269° |
| 2026-05-05 12:42 | 51.47049 | -0.48559 | 87 ft | 4 kts | 269° |
| 2026-05-05 12:42 | 51.47049 | -0.48516 | 90 ft | 3 kts | 269° |
| 2026-05-05 12:42 | 51.47050 | -0.48485 | 88 ft | 4 kts | 231° |
| 2026-05-05 12:42 | 51.47069 | -0.48471 | 90 ft | 3 kts | 179° |
| 2026-05-05 12:43 | 51.47088 | -0.48472 | 88 ft | 0 kts | 179° |
| 2026-05-05 12:44 | 51.47079 | -0.48471 | 87 ft | 3 kts | 179° |
| 2026-05-05 12:45 | 51.47048 | -0.48471 | 90 ft | 6 kts | 179° |
| 2026-05-05 12:45 | 51.47000 | -0.48471 | 88 ft | 8 kts | 179° |
| 2026-05-05 12:45 | 51.46935 | -0.48470 | 89 ft | 11 kts | 179° |
| 2026-05-05 12:45 | 51.46855 | -0.48469 | 86 ft | 12 kts | 180° |
| 2026-05-05 12:46 | 51.46831 | -0.48470 | 86 ft | 0 kts | 180° |
| 2026-05-05 12:46 | 51.46826 | -0.48470 | 86 ft | 1 kts | 181° |
| 2026-05-05 12:46 | 51.46808 | -0.48470 | 86 ft | 4 kts | 180° |
| 2026-05-05 12:46 | 51.46763 | -0.48470 | 86 ft | 8 kts | 180° |
| 2026-05-05 12:47 | 51.46694 | -0.48468 | 86 ft | 12 kts | 179° |
| 2026-05-05 12:47 | 51.46605 | -0.48466 | 86 ft | 14 kts | 181° |
| 2026-05-05 12:47 | 51.46514 | -0.48467 | 86 ft | 10 kts | 180° |
| 2026-05-05 12:47 | 51.46477 | -0.48414 | 90 ft | 7 kts | 95° |
| 2026-05-05 12:48 | 51.46480 | -0.48346 | 87 ft | 6 kts | 88° |
| 2026-05-05 12:48 | 51.46480 | -0.48083 | 87 ft | 57 kts | 90° |
| 2026-05-05 12:48 | 51.46481 | -0.47070 | 87 ft | 121 kts | 90° |
| 2026-05-05 12:48 | 51.46490 | -0.45473 | 107 ft | 165 kts | 86° |
| 2026-05-05 12:49 | 51.46512 | -0.43710 | 873 ft | 153 kts | 85° |
| 2026-05-05 12:49 | 51.46555 | -0.41999 | 1583 ft | 158 kts | 77° |
| 2026-05-05 12:49 | 51.47026 | -0.40317 | 1984 ft | 176 kts | 49° |
| 2026-05-05 12:49 | 51.47867 | -0.38751 | 2353 ft | 195 kts | 48° |
| 2026-05-05 12:50 | 51.48810 | -0.36963 | 2665 ft | 223 kts | 49° |
| 2026-05-05 12:50 | 51.49870 | -0.34978 | 3159 ft | 246 kts | 49° |
| 2026-05-05 12:50 | 51.51003 | -0.32868 | 4103 ft | 252 kts | 49° |
| 2026-05-05 12:50 | 51.52115 | -0.30659 | 5119 ft | 255 kts | 52° |
| 2026-05-05 12:51 | 51.53178 | -0.28358 | 6090 ft | 259 kts | 54° |
| 2026-05-05 12:51 | 51.54259 | -0.25988 | 6913 ft | 267 kts | 53° |
| 2026-05-05 12:51 | 51.55388 | -0.23574 | 7764 ft | 273 kts | 53° |
| 2026-05-05 12:51 | 51.56535 | -0.21120 | 8654 ft | 277 kts | 53° |
| 2026-05-05 12:52 | 51.57703 | -0.18618 | 9517 ft | 283 kts | 52° |
| 2026-05-05 12:52 | 51.58893 | -0.16059 | 10254 ft | 291 kts | 52° |
| 2026-05-05 12:52 | 51.60157 | -0.13342 | 10547 ft | 314 kts | 52° |
| 2026-05-05 12:52 | 51.61504 | -0.10448 | 10768 ft | 337 kts | 52° |
| 2026-05-05 12:53 | 51.62942 | -0.07362 | 11254 ft | 349 kts | 52° |
| 2026-05-05 12:53 | 51.64416 | -0.04203 | 11915 ft | 354 kts | 53° |
| 2026-05-05 12:53 | 51.65901 | -0.01017 | 12650 ft | 357 kts | 53° |
| 2026-05-05 12:53 | 51.67395 | 0.02200 | 13396 ft | 360 kts | 53° |
| 2026-05-05 12:54 | 51.70421 | 0.08726 | 14740 ft | 366 kts | 53° |
| 2026-05-05 12:54 | 51.71955 | 0.12038 | 15331 ft | 370 kts | 53° |
| 2026-05-05 12:54 | 51.73489 | 0.15359 | 15937 ft | 374 kts | 53° |
| 2026-05-05 12:55 | 51.75057 | 0.18758 | 16519 ft | 378 kts | 53° |
| 2026-05-05 12:55 | 51.76624 | 0.22199 | 17127 ft | 381 kts | 56° |
| 2026-05-05 12:55 | 51.77907 | 0.25964 | 17730 ft | 385 kts | 67° |
| 2026-05-05 12:55 | 51.78741 | 0.30033 | 18300 ft | 389 kts | 76° |
| 2026-05-05 12:56 | 51.79407 | 0.34307 | 18834 ft | 392 kts | 76° |
| 2026-05-05 12:56 | 51.80091 | 0.38623 | 19346 ft | 397 kts | 76° |
| 2026-05-05 12:56 | 51.80785 | 0.42968 | 19899 ft | 400 kts | 76° |
| 2026-05-05 12:56 | 51.81475 | 0.47296 | 20361 ft | 406 kts | 76° |
| 2026-05-05 12:57 | 51.82183 | 0.51763 | 20831 ft | 411 kts | 77° |
| 2026-05-05 12:57 | 51.82895 | 0.56258 | 21381 ft | 413 kts | 76° |
| 2026-05-05 12:57 | 51.83607 | 0.60777 | 21874 ft | 416 kts | 77° |
| 2026-05-05 12:57 | 51.84320 | 0.65327 | 22357 ft | 419 kts | 77° |
| 2026-05-05 12:58 | 51.85035 | 0.69874 | 22846 ft | 421 kts | 77° |
| 2026-05-05 12:58 | 51.85758 | 0.74496 | 23328 ft | 425 kts | 77° |
| 2026-05-05 12:58 | 51.86481 | 0.79147 | 23767 ft | 428 kts | 77° |
| 2026-05-05 12:58 | 51.87208 | 0.83836 | 24160 ft | 430 kts | 77° |
| 2026-05-05 12:59 | 51.87928 | 0.88499 | 24541 ft | 433 kts | 77° |
| 2026-05-05 12:59 | 51.88659 | 0.93249 | 24917 ft | 436 kts | 77° |
| 2026-05-05 12:59 | 51.89394 | 0.98029 | 25289 ft | 439 kts | 78° |
| 2026-05-05 13:00 | 51.90874 | 1.07695 | 26098 ft | 443 kts | 78° |
| 2026-05-05 13:00 | 51.91612 | 1.12553 | 26488 ft | 446 kts | 78° |
| 2026-05-05 13:01 | 51.93847 | 1.27325 | 27621 ft | 454 kts | 78° |
| 2026-05-05 13:01 | 51.94602 | 1.32326 | 27987 ft | 457 kts | 78° |
| 2026-05-05 13:01 | 51.95357 | 1.37352 | 28353 ft | 460 kts | 78° |
| 2026-05-05 13:01 | 51.96104 | 1.42348 | 28704 ft | 462 kts | 79° |
| 2026-05-05 13:02 | 51.96860 | 1.47430 | 29053 ft | 465 kts | 78° |
| 2026-05-05 13:02 | 51.97619 | 1.52548 | 29479 ft | 466 kts | 78° |
| 2026-05-05 13:02 | 51.98377 | 1.57648 | 30043 ft | 464 kts | 79° |
| 2026-05-05 13:02 | 51.99134 | 1.62744 | 30499 ft | 464 kts | 78° |
| 2026-05-05 13:03 | 51.99885 | 1.67835 | 30919 ft | 464 kts | 79° |
| 2026-05-05 13:03 | 52.00632 | 1.72926 | 31338 ft | 464 kts | 79° |
| 2026-05-05 13:03 | 52.01380 | 1.78039 | 31755 ft | 464 kts | 78° |
| 2026-05-05 13:03 | 52.02119 | 1.83109 | 32173 ft | 465 kts | 78° |
| 2026-05-05 13:04 | 52.02860 | 1.88220 | 32593 ft | 465 kts | 79° |
| 2026-05-05 13:04 | 52.03601 | 1.93361 | 32991 ft | 466 kts | 79° |
| 2026-05-05 13:04 | 52.04340 | 1.98510 | 33387 ft | 467 kts | 78° |
| 2026-05-05 13:04 | 52.05079 | 2.03651 | 33831 ft | 467 kts | 78° |
| 2026-05-05 13:05 | 52.05812 | 2.08729 | 34231 ft | 467 kts | 78° |
| 2026-05-05 13:05 | 52.06554 | 2.13891 | 34622 ft | 466 kts | 78° |
| 2026-05-05 13:05 | 52.07282 | 2.18983 | 34908 ft | 466 kts | 78° |
| 2026-05-05 13:05 | 52.08013 | 2.24126 | 34980 ft | 467 kts | 78° |
| 2026-05-05 13:06 | 52.09464 | 2.34423 | 34986 ft | 468 kts | 78° |
| 2026-05-05 13:06 | 52.10908 | 2.44774 | 34983 ft | 468 kts | 78° |
| 2026-05-05 13:07 | 52.12479 | 2.55034 | 34983 ft | 469 kts | 75° |
| 2026-05-05 13:07 | 52.14456 | 2.65189 | 34980 ft | 469 kts | 72° |
| 2026-05-05 13:08 | 52.16170 | 2.73572 | 34989 ft | 469 kts | 73° |
| 2026-05-05 13:08 | 52.18457 | 2.85378 | 34982 ft | 469 kts | 74° |
| 2026-05-05 13:09 | 52.20027 | 2.93853 | 34981 ft | 469 kts | 75° |
| 2026-05-05 13:09 | 52.21888 | 3.03994 | 34956 ft | 469 kts | 75° |
| 2026-05-05 13:10 | 52.23762 | 3.14204 | 34958 ft | 469 kts | 77° |
| 2026-05-05 13:10 | 52.24401 | 3.24669 | 34970 ft | 464 kts | 96° |
| 2026-05-05 13:11 | 52.23052 | 3.34854 | 34949 ft | 457 kts | 114° |
| 2026-05-05 13:11 | 52.20740 | 3.44517 | 34951 ft | 457 kts | 114° |
| 2026-05-05 13:12 | 52.18430 | 3.54169 | 34953 ft | 457 kts | 114° |
| 2026-05-05 13:12 | 52.16110 | 3.63836 | 34955 ft | 456 kts | 115° |
| 2026-05-05 13:13 | 52.13794 | 3.73410 | 34960 ft | 456 kts | 115° |
| 2026-05-05 13:13 | 52.11463 | 3.82968 | 34948 ft | 456 kts | 115° |
| 2026-05-05 13:14 | 52.09113 | 3.92583 | 34951 ft | 456 kts | 115° |
| 2026-05-05 13:14 | 52.06761 | 4.02156 | 34937 ft | 455 kts | 116° |
| 2026-05-05 13:15 | 52.04417 | 4.11656 | 34949 ft | 455 kts | 116° |
| 2026-05-05 13:15 | 52.02051 | 4.21215 | 34922 ft | 455 kts | 116° |
| 2026-05-05 13:16 | 51.99684 | 4.30741 | 34919 ft | 455 kts | 116° |
| 2026-05-05 13:16 | 51.97322 | 4.40200 | 34915 ft | 455 kts | 116° |
| 2026-05-05 13:17 | 51.94935 | 4.49709 | 34920 ft | 454 kts | 117° |
| 2026-05-05 13:17 | 51.92559 | 4.59152 | 34932 ft | 453 kts | 117° |
| 2026-05-05 13:18 | 51.90170 | 4.68605 | 34925 ft | 452 kts | 117° |
| 2026-05-05 13:18 | 51.87772 | 4.78023 | 34936 ft | 452 kts | 117° |
| 2026-05-05 13:19 | 51.85381 | 4.87390 | 34916 ft | 452 kts | 117° |
| 2026-05-05 13:19 | 51.82975 | 4.96802 | 34917 ft | 452 kts | 117° |
| 2026-05-05 13:20 | 51.80561 | 5.06199 | 34915 ft | 452 kts | 117° |
| 2026-05-05 13:20 | 51.78132 | 5.15591 | 34917 ft | 453 kts | 117° |
| 2026-05-05 13:21 | 51.75705 | 5.24968 | 34907 ft | 453 kts | 117° |
| 2026-05-05 13:21 | 51.73281 | 5.34286 | 34901 ft | 453 kts | 117° |
| 2026-05-05 13:22 | 51.70827 | 5.43687 | 34895 ft | 454 kts | 117° |
| 2026-05-05 13:22 | 51.68373 | 5.53027 | 34893 ft | 454 kts | 117° |
| 2026-05-05 13:23 | 51.65891 | 5.62420 | 34899 ft | 454 kts | 117° |
| 2026-05-05 13:23 | 51.63429 | 5.71743 | 34925 ft | 453 kts | 117° |
| 2026-05-05 13:24 | 51.60947 | 5.81081 | 34910 ft | 453 kts | 118° |
| 2026-05-05 13:24 | 51.58474 | 5.90336 | 34913 ft | 452 kts | 118° |
| 2026-05-05 13:25 | 51.55986 | 5.99630 | 34920 ft | 452 kts | 118° |
| 2026-05-05 13:25 | 51.53493 | 6.08896 | 34921 ft | 452 kts | 118° |
| 2026-05-05 13:26 | 51.50986 | 6.18154 | 34922 ft | 452 kts | 118° |
| 2026-05-05 13:26 | 51.48538 | 6.27449 | 34901 ft | 453 kts | 116° |
| 2026-05-05 13:27 | 51.46253 | 6.36895 | 34883 ft | 455 kts | 116° |
| 2026-05-05 13:27 | 51.43977 | 6.46395 | 34877 ft | 457 kts | 116° |
| 2026-05-05 13:28 | 51.41663 | 6.55835 | 34868 ft | 457 kts | 116° |
| 2026-05-05 13:28 | 51.39290 | 6.65319 | 34865 ft | 458 kts | 116° |
| 2026-05-05 13:29 | 51.36926 | 6.74747 | 34850 ft | 457 kts | 117° |
| 2026-05-05 13:29 | 51.34559 | 6.84186 | 34886 ft | 456 kts | 117° |
| 2026-05-05 13:30 | 51.32212 | 6.93553 | 34907 ft | 455 kts | 117° |
| 2026-05-05 13:30 | 51.29839 | 7.02968 | 34900 ft | 455 kts | 117° |
| 2026-05-05 13:31 | 51.26862 | 7.11714 | 34822 ft | 442 kts | 133° |
| 2026-05-05 13:31 | 51.24811 | 7.15366 | 33957 ft | 441 kts | 143° |
| 2026-05-05 13:31 | 51.22424 | 7.18321 | 32960 ft | 437 kts | 153° |
| 2026-05-05 13:32 | 51.19758 | 7.20628 | 31966 ft | 437 kts | 159° |
| 2026-05-05 13:32 | 51.16996 | 7.22762 | 30883 ft | 443 kts | 158° |
| 2026-05-05 13:32 | 51.14208 | 7.24949 | 29762 ft | 450 kts | 157° |
| 2026-05-05 13:32 | 51.11400 | 7.27177 | 28497 ft | 456 kts | 156° |
| 2026-05-05 13:33 | 51.08556 | 7.29485 | 27335 ft | 459 kts | 155° |
| 2026-05-05 13:33 | 51.05726 | 7.31833 | 26415 ft | 457 kts | 154° |
| 2026-05-05 13:33 | 51.02916 | 7.34187 | 25460 ft | 456 kts | 154° |
| 2026-05-05 13:33 | 51.00122 | 7.36529 | 24732 ft | 450 kts | 154° |
| 2026-05-05 13:34 | 50.97375 | 7.38816 | 24125 ft | 441 kts | 154° |
| 2026-05-05 13:34 | 50.94677 | 7.41047 | 23524 ft | 433 kts | 154° |
| 2026-05-05 13:34 | 50.92059 | 7.43194 | 22879 ft | 426 kts | 154° |
| 2026-05-05 13:34 | 50.89443 | 7.45330 | 22294 ft | 419 kts | 154° |
| 2026-05-05 13:35 | 50.86854 | 7.47439 | 21705 ft | 416 kts | 154° |
| 2026-05-05 13:35 | 50.84283 | 7.49531 | 21128 ft | 412 kts | 154° |
| 2026-05-05 13:35 | 50.81743 | 7.51600 | 20538 ft | 409 kts | 154° |
| 2026-05-05 13:35 | 50.79221 | 7.53663 | 19965 ft | 407 kts | 154° |
| 2026-05-05 13:36 | 50.76713 | 7.55712 | 19401 ft | 404 kts | 154° |
| 2026-05-05 13:36 | 50.74255 | 7.57713 | 18855 ft | 401 kts | 154° |
| 2026-05-05 13:36 | 50.71778 | 7.59721 | 18301 ft | 398 kts | 154° |
| 2026-05-05 13:36 | 50.69315 | 7.61716 | 17699 ft | 395 kts | 154° |
| 2026-05-05 13:37 | 50.66878 | 7.63688 | 17232 ft | 393 kts | 154° |
| 2026-05-05 13:37 | 50.64455 | 7.65648 | 16761 ft | 390 kts | 154° |
| 2026-05-05 13:37 | 50.62034 | 7.67601 | 16271 ft | 388 kts | 154° |
| 2026-05-05 13:37 | 50.59646 | 7.69530 | 15805 ft | 384 kts | 154° |
| 2026-05-05 13:38 | 50.57301 | 7.71425 | 15371 ft | 382 kts | 154° |
| 2026-05-05 13:38 | 50.54943 | 7.73324 | 14920 ft | 380 kts | 154° |
| 2026-05-05 13:38 | 50.52599 | 7.75209 | 14506 ft | 377 kts | 154° |
| 2026-05-05 13:38 | 50.50265 | 7.77087 | 14074 ft | 375 kts | 154° |
| 2026-05-05 13:39 | 50.47949 | 7.78950 | 13658 ft | 373 kts | 154° |
| 2026-05-05 13:39 | 50.45634 | 7.80812 | 13184 ft | 370 kts | 154° |
| 2026-05-05 13:39 | 50.43384 | 7.82765 | 12769 ft | 369 kts | 147° |
| 2026-05-05 13:39 | 50.41315 | 7.85189 | 11879 ft | 373 kts | 143° |
| 2026-05-05 13:40 | 50.39290 | 7.87691 | 10912 ft | 377 kts | 143° |
| 2026-05-05 13:40 | 50.37261 | 7.90223 | 10598 ft | 364 kts | 142° |
| 2026-05-05 13:40 | 50.35318 | 7.92649 | 10482 ft | 348 kts | 142° |
| 2026-05-05 13:40 | 50.33464 | 7.94958 | 10342 ft | 332 kts | 142° |
| 2026-05-05 13:41 | 50.31688 | 7.97157 | 10227 ft | 318 kts | 142° |
| 2026-05-05 13:41 | 50.29984 | 7.99263 | 10108 ft | 305 kts | 142° |
| 2026-05-05 13:41 | 50.28367 | 8.01265 | 9990 ft | 294 kts | 142° |
| 2026-05-05 13:41 | 50.26798 | 8.03239 | 9869 ft | 286 kts | 139° |
| 2026-05-05 13:42 | 50.25476 | 8.05548 | 9831 ft | 285 kts | 128° |
| 2026-05-05 13:42 | 50.24269 | 8.08014 | 9839 ft | 286 kts | 129° |
| 2026-05-05 13:42 | 50.23057 | 8.10475 | 9837 ft | 286 kts | 129° |
| 2026-05-05 13:42 | 50.21837 | 8.12947 | 9846 ft | 287 kts | 129° |
| 2026-05-05 13:43 | 50.20621 | 8.15414 | 9842 ft | 286 kts | 129° |
| 2026-05-05 13:43 | 50.19421 | 8.17847 | 9850 ft | 286 kts | 129° |
| 2026-05-05 13:43 | 50.18207 | 8.20303 | 9851 ft | 286 kts | 129° |
| 2026-05-05 13:43 | 50.16987 | 8.22760 | 9853 ft | 286 kts | 129° |
| 2026-05-05 13:44 | 50.15768 | 8.25214 | 9854 ft | 286 kts | 129° |
| 2026-05-05 13:44 | 50.14551 | 8.27665 | 9852 ft | 286 kts | 129° |
| 2026-05-05 13:44 | 50.13331 | 8.30123 | 9856 ft | 285 kts | 129° |
| 2026-05-05 13:44 | 50.12133 | 8.32542 | 9864 ft | 285 kts | 129° |
| 2026-05-05 13:45 | 50.11048 | 8.35159 | 9862 ft | 287 kts | 115° |
| 2026-05-05 13:45 | 50.10509 | 8.38129 | 9612 ft | 287 kts | 97° |
| 2026-05-05 13:45 | 50.10616 | 8.41227 | 9289 ft | 288 kts | 78° |
| 2026-05-05 13:45 | 50.11275 | 8.44184 | 8933 ft | 288 kts | 70° |
| 2026-05-05 13:46 | 50.11983 | 8.47066 | 8592 ft | 287 kts | 70° |
| 2026-05-05 13:46 | 50.12683 | 8.49970 | 8235 ft | 286 kts | 71° |
| 2026-05-05 13:46 | 50.13370 | 8.52868 | 7892 ft | 284 kts | 71° |
| 2026-05-05 13:46 | 50.14051 | 8.55751 | 7526 ft | 283 kts | 71° |
| 2026-05-05 13:47 | 50.14732 | 8.58626 | 7203 ft | 282 kts | 71° |
| 2026-05-05 13:47 | 50.15404 | 8.61465 | 6896 ft | 280 kts | 71° |
| 2026-05-05 13:47 | 50.16079 | 8.64311 | 6572 ft | 279 kts | 71° |
| 2026-05-05 13:47 | 50.16749 | 8.67138 | 6250 ft | 277 kts | 71° |
| 2026-05-05 13:48 | 50.17419 | 8.69967 | 5918 ft | 276 kts | 71° |
| 2026-05-05 13:48 | 50.18083 | 8.72769 | 5589 ft | 275 kts | 71° |
| 2026-05-05 13:48 | 50.18739 | 8.75533 | 5384 ft | 263 kts | 71° |
| 2026-05-05 13:48 | 50.19351 | 8.78111 | 5256 ft | 244 kts | 71° |
| 2026-05-05 13:49 | 50.19904 | 8.80490 | 5120 ft | 226 kts | 75° |
| 2026-05-05 13:49 | 50.19950 | 8.82835 | 4809 ft | 213 kts | 109° |
| 2026-05-05 13:49 | 50.19161 | 8.84704 | 4381 ft | 207 kts | 145° |
| 2026-05-05 13:49 | 50.17859 | 8.85667 | 4216 ft | 209 kts | 162° |
| 2026-05-05 13:50 | 50.16467 | 8.86364 | 4089 ft | 209 kts | 163° |
| 2026-05-05 13:50 | 50.15061 | 8.86883 | 3989 ft | 207 kts | 181° |
| 2026-05-05 13:50 | 50.13665 | 8.86366 | 3997 ft | 208 kts | 205° |
| 2026-05-05 13:50 | 50.12485 | 8.85089 | 3998 ft | 208 kts | 226° |
| 2026-05-05 13:51 | 50.11676 | 8.83257 | 3995 ft | 209 kts | 246° |
| 2026-05-05 13:51 | 50.11165 | 8.81139 | 3969 ft | 206 kts | 249° |
| 2026-05-05 13:51 | 50.10678 | 8.79056 | 3767 ft | 203 kts | 249° |
| 2026-05-05 13:51 | 50.10194 | 8.77004 | 3525 ft | 202 kts | 249° |
| 2026-05-05 13:52 | 50.09707 | 8.74943 | 3262 ft | 201 kts | 249° |
| 2026-05-05 13:52 | 50.09223 | 8.72897 | 2984 ft | 202 kts | 249° |
| 2026-05-05 13:52 | 50.08737 | 8.70846 | 2726 ft | 201 kts | 250° |
| 2026-05-05 13:52 | 50.08419 | 8.69501 | 2556 ft | 198 kts | 249° |
| 2026-05-05 13:53 | 50.07816 | 8.66957 | 2216 ft | 177 kts | 248° |
| 2026-05-05 13:53 | 50.07542 | 8.65803 | 2059 ft | 167 kts | 248° |
| 2026-05-05 13:53 | 50.07159 | 8.64193 | 1850 ft | 151 kts | 249° |
| 2026-05-05 13:53 | 50.06815 | 8.62745 | 1656 ft | 138 kts | 249° |
| 2026-05-05 13:54 | 50.06486 | 8.61358 | 1474 ft | 134 kts | 249° |
| 2026-05-05 13:54 | 50.06166 | 8.59992 | 1296 ft | 134 kts | 249° |
| 2026-05-05 13:54 | 50.05837 | 8.58629 | 1113 ft | 131 kts | 248° |
| 2026-05-05 13:54 | 50.05522 | 8.57293 | 935 ft | 131 kts | 249° |
| 2026-05-05 13:55 | 50.05205 | 8.55969 | 798 ft | 131 kts | 246° |
| 2026-05-05 13:55 | 50.04892 | 8.54641 | 583 ft | 130 kts | 249° |
| 2026-05-05 13:55 | 50.04576 | 8.53333 | 418 ft | 129 kts | 248° |
| 2026-05-05 13:55 | 50.04278 | 8.52101 | 336 ft | 100 kts | 250° |
| 2026-05-05 13:56 | 50.04139 | 8.51519 | 331 ft | 24 kts | 250° |
| 2026-05-05 13:56 | 50.04075 | 8.51250 | 327 ft | 28 kts | 249° |
| 2026-05-05 13:56 | 50.03983 | 8.51028 | 326 ft | 17 kts | 227° |
| 2026-05-05 13:56 | 50.03916 | 8.50928 | 325 ft | 12 kts | 222° |
| 2026-05-05 13:57 | 50.03874 | 8.50873 | 324 ft | 2 kts | 218° |
| 2026-05-05 13:57 | 50.03863 | 8.50859 | 326 ft | 2 kts | 218° |
| 2026-05-05 13:57 | 50.03852 | 8.50848 | 326 ft | 2 kts | 211° |
| 2026-05-05 13:57 | 50.03847 | 8.50844 | 328 ft | 0 kts | 209° |
| 2026-05-05 13:58 | 50.03835 | 8.50837 | 329 ft | 2 kts | 195° |
| 2026-05-05 13:58 | 50.03832 | 8.50836 | 329 ft | 0 kts | 193° |
| 2026-05-05 13:58 | 50.03830 | 8.50836 | 330 ft | 2 kts | 191° |
| 2026-05-05 13:58 | 50.03797 | 8.50853 | 329 ft | 10 kts | 140° |
| 2026-05-05 13:59 | 50.03867 | 8.51284 | 332 ft | 27 kts | 70° |
| 2026-05-05 13:59 | 50.03935 | 8.51568 | 333 ft | 29 kts | 69° |
| 2026-05-05 14:00 | 50.04082 | 8.52180 | 342 ft | 31 kts | 69° |
| 2026-05-05 14:00 | 50.04158 | 8.52499 | 349 ft | 32 kts | 69° |
| 2026-05-05 14:00 | 50.04236 | 8.52825 | 353 ft | 32 kts | 70° |
| 2026-05-05 14:00 | 50.04315 | 8.53157 | 361 ft | 32 kts | 70° |
| 2026-05-05 14:01 | 50.04388 | 8.53465 | 374 ft | 27 kts | 73° |
| 2026-05-05 14:01 | 50.04411 | 8.53746 | 375 ft | 27 kts | 84° |
| 2026-05-05 14:01 | 50.04430 | 8.54048 | 375 ft | 30 kts | 84° |
| 2026-05-05 14:01 | 50.04452 | 8.54383 | 372 ft | 32 kts | 85° |
| 2026-05-05 14:02 | 50.04394 | 8.54674 | 363 ft | 27 kts | 130° |
| 2026-05-05 14:02 | 50.04240 | 8.54812 | 355 ft | 24 kts | 161° |
| 2026-05-05 14:02 | 50.04109 | 8.54886 | 350 ft | 11 kts | 159° |
| 2026-05-05 14:02 | 50.04074 | 8.54907 | 352 ft | 0 kts | 160° |
| 2026-05-05 14:04 | 50.04073 | 8.54907 | 356 ft | 0 kts | 160° |
| 2026-05-05 14:05 | 50.04038 | 8.54932 | 359 ft | 13 kts | 145° |
| 2026-05-05 14:05 | 50.04038 | 8.55098 | 358 ft | 22 kts | 70° |
| 2026-05-05 14:05 | 50.04102 | 8.55368 | 359 ft | 29 kts | 70° |
| 2026-05-05 14:05 | 50.04176 | 8.55679 | 356 ft | 32 kts | 69° |
| 2026-05-05 14:06 | 50.04253 | 8.56004 | 359 ft | 33 kts | 70° |
| 2026-05-05 14:06 | 50.04335 | 8.56342 | 360 ft | 34 kts | 69° |
| 2026-05-05 14:06 | 50.04417 | 8.56685 | 360 ft | 34 kts | 70° |
| 2026-05-05 14:06 | 50.04500 | 8.57033 | 361 ft | 35 kts | 70° |
| 2026-05-05 14:07 | 50.04587 | 8.57397 | 363 ft | 36 kts | 70° |
| 2026-05-05 14:07 | 50.04676 | 8.57771 | 365 ft | 37 kts | 69° |
| 2026-05-05 14:07 | 50.04800 | 8.58038 | 364 ft | 28 kts | 60° |
| 2026-05-05 14:07 | 50.04867 | 8.58318 | 363 ft | 28 kts | 70° |
| 2026-05-05 14:08 | 50.04934 | 8.58602 | 363 ft | 29 kts | 69° |
| 2026-05-05 14:08 | 50.04999 | 8.58876 | 361 ft | 10 kts | 61° |
| 2026-05-05 14:08 | 50.05047 | 8.58877 | 363 ft | 9 kts | 340° |
| 2026-05-05 14:08 | 50.05099 | 8.58846 | 359 ft | 5 kts | 339° |
| 2026-05-05 14:09 | 50.05105 | 8.58843 | 363 ft | 0 kts | 339° |